sensor_id;sensor_type;location;lat;lon;timestamp;pressure;altitude;pressure_sealevel;temperature;humidity
75740;BME280;64357;51.344;6.550;2022-10-16T00:01:29;100807.78;;;13.04;88.89
75740;BME280;64357;51.344;6.550;2022-10-16T00:03:56;100799.66;;;13.00;89.21
75740;BME280;64357;51.344;6.550;2022-10-16T00:06:22;100803.13;;;13.19;87.84
75740;BME280;64357;51.344;6.550;2022-10-16T00:08:49;100799.97;;;13.13;88.90
75740;BME280;64357;51.344;6.550;2022-10-16T00:13:46;100793.41;;;13.06;89.10
75740;BME280;64357;51.344;6.550;2022-10-16T00:16:12;100808.25;;;13.00;88.78
75740;BME280;64357;51.344;6.550;2022-10-16T00:18:38;100816.38;;;13.05;89.14
75740;BME280;64357;51.344;6.550;2022-10-16T00:21:09;100807.78;;;13.04;89.02
75740;BME280;64357;51.344;6.550;2022-10-16T00:23:36;100813.00;;;12.96;89.46
75740;BME280;64357;51.344;6.550;2022-10-16T00:26:06;100808.22;;;12.90;89.44
75740;BME280;64357;51.344;6.550;2022-10-16T00:28:32;100808.41;;;13.02;88.68
75740;BME280;64357;51.344;6.550;2022-10-16T00:30:58;100793.50;;;12.98;88.84
75740;BME280;64357;51.344;6.550;2022-10-16T00:33:26;100798.34;;;12.95;88.90
75740;BME280;64357;51.344;6.550;2022-10-16T00:35:51;100800.66;;;12.92;89.44
75740;BME280;64357;51.344;6.550;2022-10-16T00:38:19;100793.44;;;12.88;89.49
75740;BME280;64357;51.344;6.550;2022-10-16T00:40:44;100796.69;;;12.95;89.41
75740;BME280;64357;51.344;6.550;2022-10-16T00:45:59;100797.22;;;13.01;88.92
75740;BME280;64357;51.344;6.550;2022-10-16T00:48:25;100791.38;;;13.02;88.71
75740;BME280;64357;51.344;6.550;2022-10-16T00:50:53;100790.47;;;13.02;88.50
75740;BME280;64357;51.344;6.550;2022-10-16T00:53:19;100786.13;;;13.11;88.42
75740;BME280;64357;51.344;6.550;2022-10-16T00:55:44;100792.09;;;13.01;88.35
75740;BME280;64357;51.344;6.550;2022-10-16T00:58:11;100789.22;;;12.88;89.30
75740;BME280;64357;51.344;6.550;2022-10-16T01:00:40;100793.19;;;12.85;89.31
75740;BME280;64357;51.344;6.550;2022-10-16T01:03:26;100788.06;;;12.85;89.36
75740;BME280;64357;51.344;6.550;2022-10-16T01:08:36;100797.53;;;12.86;89.43
75740;BME280;64357;51.344;6.550;2022-10-16T01:11:24;100802.25;;;12.81;89.27
75740;BME280;64357;51.344;6.550;2022-10-16T01:13:54;100802.09;;;12.98;88.73
75740;BME280;64357;51.344;6.550;2022-10-16T01:16:36;100815.94;;;13.00;88.71
75740;BME280;64357;51.344;6.550;2022-10-16T01:22:16;100803.09;;;12.90;88.83
75740;BME280;64357;51.344;6.550;2022-10-16T01:24:47;100800.53;;;12.90;88.69
75740;BME280;64357;51.344;6.550;2022-10-16T01:27:26;100808.91;;;12.98;88.12
75740;BME280;64357;51.344;6.550;2022-10-16T01:30:21;100806.69;;;12.92;88.77
75740;BME280;64357;51.344;6.550;2022-10-16T01:38:03;100793.94;;;13.02;88.08
75740;BME280;64357;51.344;6.550;2022-10-16T01:40:32;100792.88;;;13.00;87.73
75740;BME280;64357;51.344;6.550;2022-10-16T01:43:03;100806.75;;;13.02;87.95
75740;BME280;64357;51.344;6.550;2022-10-16T01:45:31;100797.38;;;13.03;87.40
75740;BME280;64357;51.344;6.550;2022-10-16T01:48:02;100790.94;;;12.98;87.50
75740;BME280;64357;51.344;6.550;2022-10-16T01:50:33;100795.94;;;12.96;87.52
75740;BME280;64357;51.344;6.550;2022-10-16T01:53:02;100795.72;;;13.03;87.08
75740;BME280;64357;51.344;6.550;2022-10-16T01:55:35;100802.59;;;12.94;87.64
75740;BME280;64357;51.344;6.550;2022-10-16T01:58:02;100811.34;;;12.96;87.02
75740;BME280;64357;51.344;6.550;2022-10-16T02:00:32;100816.28;;;12.95;87.32
75740;BME280;64357;51.344;6.550;2022-10-16T02:03:01;100808.13;;;12.99;87.46
75740;BME280;64357;51.344;6.550;2022-10-16T02:05:41;100818.16;;;13.06;87.16
75740;BME280;64357;51.344;6.550;2022-10-16T02:08:07;100815.94;;;13.00;86.86
75740;BME280;64357;51.344;6.550;2022-10-16T02:10:35;100818.44;;;13.09;86.99
75740;BME280;64357;51.344;6.550;2022-10-16T02:13:15;100820.66;;;13.15;86.35
75740;BME280;64357;51.344;6.550;2022-10-16T02:15:45;100819.56;;;13.21;86.17
75740;BME280;64357;51.344;6.550;2022-10-16T02:18:15;100820.13;;;13.19;86.08
75740;BME280;64357;51.344;6.550;2022-10-16T02:26:08;100831.50;;;13.21;85.94
75740;BME280;64357;51.344;6.550;2022-10-16T02:28:52;100815.88;;;13.28;85.63
75740;BME280;64357;51.344;6.550;2022-10-16T02:31:24;100827.69;;;13.26;85.15
75740;BME280;64357;51.344;6.550;2022-10-16T02:33:55;100819.34;;;13.28;84.81
75740;BME280;64357;51.344;6.550;2022-10-16T02:36:21;100824.22;;;13.36;84.76
75740;BME280;64357;51.344;6.550;2022-10-16T02:38:47;100824.50;;;13.39;84.26
75740;BME280;64357;51.344;6.550;2022-10-16T02:41:13;100822.44;;;13.34;84.52
75740;BME280;64357;51.344;6.550;2022-10-16T02:43:39;100826.97;;;13.47;84.21
75740;BME280;64357;51.344;6.550;2022-10-16T02:46:04;100827.75;;;13.46;84.04
75740;BME280;64357;51.344;6.550;2022-10-16T02:48:30;100820.53;;;13.42;83.68
75740;BME280;64357;51.344;6.550;2022-10-16T02:50:57;100821.59;;;13.44;83.53
75740;BME280;64357;51.344;6.550;2022-10-16T02:53:23;100820.94;;;13.47;83.49
75740;BME280;64357;51.344;6.550;2022-10-16T02:55:48;100821.59;;;13.44;83.81
75740;BME280;64357;51.344;6.550;2022-10-16T02:58:13;100826.06;;;13.47;83.40
75740;BME280;64357;51.344;6.550;2022-10-16T03:00:39;100832.09;;;13.47;83.45
75740;BME280;64357;51.344;6.550;2022-10-16T03:03:04;100833.72;;;13.37;83.99
75740;BME280;64357;51.344;6.550;2022-10-16T03:05:30;100825.19;;;13.46;83.87
75740;BME280;64357;51.344;6.550;2022-10-16T03:07:57;100832.81;;;13.26;84.38
75740;BME280;64357;51.344;6.550;2022-10-16T03:10:25;100829.22;;;13.34;83.83
75740;BME280;64357;51.344;6.550;2022-10-16T03:12:50;100817.94;;;13.32;83.94
75740;BME280;64357;51.344;6.550;2022-10-16T03:15:16;100814.69;;;13.24;84.13
75740;BME280;64357;51.344;6.550;2022-10-16T03:17:41;100819.69;;;13.23;83.92
75740;BME280;64357;51.344;6.550;2022-10-16T03:20:07;100819.34;;;13.28;83.90
75740;BME280;64357;51.344;6.550;2022-10-16T03:22:35;100821.47;;;13.24;83.87
75740;BME280;64357;51.344;6.550;2022-10-16T03:25:03;100821.34;;;13.22;84.05
75740;BME280;64357;51.344;6.550;2022-10-16T03:27:29;100831.91;;;13.25;83.77
75740;BME280;64357;51.344;6.550;2022-10-16T03:29:54;100832.84;;;13.17;83.90
75740;BME280;64357;51.344;6.550;2022-10-16T03:32:19;100822.88;;;13.20;83.65
75740;BME280;64357;51.344;6.550;2022-10-16T03:34:45;100825.59;;;13.22;83.42
75740;BME280;64357;51.344;6.550;2022-10-16T03:37:13;100832.38;;;13.21;83.69
75740;BME280;64357;51.344;6.550;2022-10-16T03:39:39;100836.88;;;13.24;83.32
75740;BME280;64357;51.344;6.550;2022-10-16T03:42:04;100835.63;;;13.10;83.69
75740;BME280;64357;51.344;6.550;2022-10-16T03:44:29;100840.00;;;13.11;83.79
75740;BME280;64357;51.344;6.550;2022-10-16T03:46:55;100843.31;;;13.10;84.04
75740;BME280;64357;51.344;6.550;2022-10-16T03:49:20;100841.88;;;13.03;83.87
75740;BME280;64357;51.344;6.550;2022-10-16T03:51:45;100844.03;;;12.99;84.33
75740;BME280;64357;51.344;6.550;2022-10-16T03:54:11;100832.59;;;12.95;84.07
75740;BME280;64357;51.344;6.550;2022-10-16T03:56:39;100836.59;;;12.83;84.94
75740;BME280;64357;51.344;6.550;2022-10-16T03:59:06;100832.72;;;12.78;85.10
75740;BME280;64357;51.344;6.550;2022-10-16T04:01:31;100828.78;;;12.81;85.07
75740;BME280;64357;51.344;6.550;2022-10-16T04:03:57;100843.16;;;12.79;84.43
75740;BME280;64357;51.344;6.550;2022-10-16T04:06:22;100840.56;;;12.79;84.55
75740;BME280;64357;51.344;6.550;2022-10-16T04:08:47;100845.91;;;12.91;84.02
75740;BME280;64357;51.344;6.550;2022-10-16T04:11:13;100851.59;;;12.78;84.88
75740;BME280;64357;51.344;6.550;2022-10-16T04:13:41;100841.53;;;12.71;84.79
75740;BME280;64357;51.344;6.550;2022-10-16T04:16:09;100849.97;;;12.70;84.84
75740;BME280;64357;51.344;6.550;2022-10-16T04:18:34;100850.28;;;12.73;84.93
75740;BME280;64357;51.344;6.550;2022-10-16T04:21:04;100852.69;;;12.72;84.88
75740;BME280;64357;51.344;6.550;2022-10-16T04:23:30;100861.34;;;12.82;84.29
75740;BME280;64357;51.344;6.550;2022-10-16T04:25:55;100868.56;;;12.87;84.17
75740;BME280;64357;51.344;6.550;2022-10-16T04:28:21;100868.22;;;12.73;85.07
75740;BME280;64357;51.344;6.550;2022-10-16T04:30:46;100875.75;;;12.72;85.09
75740;BME280;64357;51.344;6.550;2022-10-16T04:33:11;100886.22;;;12.65;85.28
75740;BME280;64357;51.344;6.550;2022-10-16T04:35:38;100891.84;;;12.61;85.68
75740;BME280;64357;51.344;6.550;2022-10-16T04:38:03;100876.84;;;12.65;85.51
75740;BME280;64357;51.344;6.550;2022-10-16T04:40:28;100885.19;;;12.63;85.04
75740;BME280;64357;51.344;6.550;2022-10-16T04:42:54;100886.72;;;12.61;85.06
75740;BME280;64357;51.344;6.550;2022-10-16T04:45:19;100893.19;;;12.57;85.46
75740;BME280;64357;51.344;6.550;2022-10-16T04:47:44;100884.84;;;12.68;85.21
75740;BME280;64357;51.344;6.550;2022-10-16T04:50:10;100892.72;;;12.61;85.52
75740;BME280;64357;51.344;6.550;2022-10-16T04:52:35;100888.50;;;12.62;85.43
75740;BME280;64357;51.344;6.550;2022-10-16T04:55:03;100901.91;;;12.59;85.37
75740;BME280;64357;51.344;6.550;2022-10-16T04:57:29;100909.53;;;12.49;86.15
75740;BME280;64357;51.344;6.550;2022-10-16T04:59:55;100904.66;;;12.61;85.81
75740;BME280;64357;51.344;6.550;2022-10-16T05:02:22;100909.28;;;12.65;85.52
75740;BME280;64357;51.344;6.550;2022-10-16T05:04:48;100915.03;;;12.62;85.37
75740;BME280;64357;51.344;6.550;2022-10-16T05:07:13;100919.44;;;12.54;85.99
75740;BME280;64357;51.344;6.550;2022-10-16T05:09:39;100913.28;;;12.71;84.42
75740;BME280;64357;51.344;6.550;2022-10-16T05:12:06;100920.91;;;12.61;85.29
75740;BME280;64357;51.344;6.550;2022-10-16T05:14:32;100929.97;;;12.58;85.81
75740;BME280;64357;51.344;6.550;2022-10-16T05:16:59;100926.97;;;12.53;85.78
75740;BME280;64357;51.344;6.550;2022-10-16T05:19:25;100922.59;;;12.61;85.31
75740;BME280;64357;51.344;6.550;2022-10-16T05:21:51;100916.72;;;12.53;85.60
75740;BME280;64357;51.344;6.550;2022-10-16T05:24:16;100929.06;;;12.57;85.39
75740;BME280;64357;51.344;6.550;2022-10-16T05:26:41;100929.69;;;12.54;85.94
75740;BME280;64357;51.344;6.550;2022-10-16T05:29:07;100928.50;;;12.51;85.98
75740;BME280;64357;51.344;6.550;2022-10-16T05:31:35;100929.06;;;12.57;85.86
75740;BME280;64357;51.344;6.550;2022-10-16T05:34:01;100928.50;;;12.51;86.69
75740;BME280;64357;51.344;6.550;2022-10-16T05:36:26;100938.88;;;12.52;85.99
75740;BME280;64357;51.344;6.550;2022-10-16T05:38:54;100947.34;;;12.51;86.37
75740;BME280;64357;51.344;6.550;2022-10-16T05:41:20;100930.88;;;12.58;85.83
75740;BME280;64357;51.344;6.550;2022-10-16T05:43:49;100936.31;;;12.61;85.70
75740;BME280;64357;51.344;6.550;2022-10-16T05:46:16;100941.75;;;12.56;86.53
75740;BME280;64357;51.344;6.550;2022-10-16T05:48:46;100948.53;;;12.55;86.37
75740;BME280;64357;51.344;6.550;2022-10-16T05:51:13;100957.03;;;12.45;86.76
75740;BME280;64357;51.344;6.550;2022-10-16T05:53:39;100961.94;;;12.52;87.04
75740;BME280;64357;51.344;6.550;2022-10-16T05:56:09;100960.81;;;12.40;87.25
75740;BME280;64357;51.344;6.550;2022-10-16T05:58:36;100955.66;;;12.49;86.71
75740;BME280;64357;51.344;6.550;2022-10-16T06:01:05;100966.06;;;12.42;87.46
75740;BME280;64357;51.344;6.550;2022-10-16T06:03:32;100978.41;;;12.46;86.76
75740;BME280;64357;51.344;6.550;2022-10-16T06:05:57;100976.88;;;12.48;86.99
75740;BME280;64357;51.344;6.550;2022-10-16T06:08:25;100968.47;;;12.49;86.89
75740;BME280;64357;51.344;6.550;2022-10-16T06:11:01;100987.47;;;12.42;87.64
75740;BME280;64357;51.344;6.550;2022-10-16T06:13:29;100987.63;;;12.44;87.62
75740;BME280;64357;51.344;6.550;2022-10-16T06:15:57;100984.75;;;12.41;87.47
75740;BME280;64357;51.344;6.550;2022-10-16T06:18:23;100982.19;;;12.41;87.36
75740;BME280;64357;51.344;6.550;2022-10-16T06:20:48;100987.25;;;12.58;87.09
75740;BME280;64357;51.344;6.550;2022-10-16T06:23:14;100993.47;;;12.51;87.34
75740;BME280;64357;51.344;6.550;2022-10-16T06:25:39;100991.34;;;12.56;87.03
75740;BME280;64357;51.344;6.550;2022-10-16T06:28:04;101002.69;;;12.49;87.80
75740;BME280;64357;51.344;6.550;2022-10-16T06:30:32;100998.72;;;12.53;87.49
75740;BME280;64357;51.344;6.550;2022-10-16T06:32:57;101006.22;;;12.60;86.94
75740;BME280;64357;51.344;6.550;2022-10-16T06:35:22;101004.22;;;12.66;86.99
75740;BME280;64357;51.344;6.550;2022-10-16T06:37:49;101003.41;;;12.57;87.22
75740;BME280;64357;51.344;6.550;2022-10-16T06:40:14;101017.34;;;12.69;86.59
75740;BME280;64357;51.344;6.550;2022-10-16T06:42:40;101030.53;;;12.55;87.14
75740;BME280;64357;51.344;6.550;2022-10-16T06:45:05;101029.47;;;12.62;86.89
75740;BME280;64357;51.344;6.550;2022-10-16T06:47:31;101042.09;;;12.60;86.89
75740;BME280;64357;51.344;6.550;2022-10-16T06:49:56;101045.03;;;12.46;87.82
75740;BME280;64357;51.344;6.550;2022-10-16T06:52:22;101054.06;;;12.42;88.20
75740;BME280;64357;51.344;6.550;2022-10-16T06:54:52;101053.81;;;12.39;88.32
75740;BME280;64357;51.344;6.550;2022-10-16T06:57:17;101065.41;;;12.36;88.32
75740;BME280;64357;51.344;6.550;2022-10-16T06:59:42;101070.97;;;12.40;88.25
75740;BME280;64357;51.344;6.550;2022-10-16T07:02:08;101068.44;;;12.32;88.21
75740;BME280;64357;51.344;6.550;2022-10-16T07:04:35;101071.44;;;12.36;88.74
75740;BME280;64357;51.344;6.550;2022-10-16T07:07:01;101075.50;;;12.34;88.55
75740;BME280;64357;51.344;6.550;2022-10-16T07:09:26;101083.66;;;12.30;88.45
75740;BME280;64357;51.344;6.550;2022-10-16T07:11:51;101080.50;;;12.33;88.51
75740;BME280;64357;51.344;6.550;2022-10-16T07:14:19;101081.09;;;12.39;88.36
75740;BME280;64357;51.344;6.550;2022-10-16T07:16:45;101088.00;;;12.31;88.90
75740;BME280;64357;51.344;6.550;2022-10-16T07:19:10;101084.38;;;12.46;88.25
75740;BME280;64357;51.344;6.550;2022-10-16T07:21:37;101089.34;;;12.45;88.05
75740;BME280;64357;51.344;6.550;2022-10-16T07:24:05;101092.81;;;12.37;88.58
75740;BME280;64357;51.344;6.550;2022-10-16T07:26:35;101091.03;;;12.36;88.68
75740;BME280;64357;51.344;6.550;2022-10-16T07:29:01;101098.88;;;12.37;89.21
75740;BME280;64357;51.344;6.550;2022-10-16T07:31:29;101100.81;;;12.40;88.73
75740;BME280;64357;51.344;6.550;2022-10-16T07:33:54;101109.41;;;12.40;88.83
75740;BME280;64357;51.344;6.550;2022-10-16T07:36:22;101107.28;;;12.45;89.61
75740;BME280;64357;51.344;6.550;2022-10-16T07:38:47;101108.16;;;12.54;88.60
75740;BME280;64357;51.344;6.550;2022-10-16T07:41:16;101117.91;;;12.75;88.13
75740;BME280;64357;51.344;6.550;2022-10-16T07:43:49;101117.13;;;12.85;87.81
75740;BME280;64357;51.344;6.550;2022-10-16T07:46:18;101129.56;;;12.99;87.18
75740;BME280;64357;51.344;6.550;2022-10-16T07:48:44;101140.41;;;13.05;87.31
75740;BME280;64357;51.344;6.550;2022-10-16T07:51:18;101138.13;;;13.08;87.26
75740;BME280;64357;51.344;6.550;2022-10-16T07:53:43;101135.38;;;13.16;86.95
75740;BME280;64357;51.344;6.550;2022-10-16T07:56:12;101128.88;;;13.28;86.56
75740;BME280;64357;51.344;6.550;2022-10-16T07:58:38;101135.25;;;13.42;86.14
75740;BME280;64357;51.344;6.550;2022-10-16T08:01:09;101136.31;;;13.44;85.39
75740;BME280;64357;51.344;6.550;2022-10-16T08:03:34;101146.41;;;13.51;85.88
75740;BME280;64357;51.344;6.550;2022-10-16T08:06:03;101142.69;;;13.66;84.54
75740;BME280;64357;51.344;6.550;2022-10-16T08:08:31;101153.09;;;13.68;84.45
75740;BME280;64357;51.344;6.550;2022-10-16T08:10:56;101160.09;;;13.79;84.19
75740;BME280;64357;51.344;6.550;2022-10-16T08:13:25;101161.00;;;13.79;84.44
75740;BME280;64357;51.344;6.550;2022-10-16T08:15:51;101164.34;;;13.97;83.30
75740;BME280;64357;51.344;6.550;2022-10-16T08:18:21;101165.50;;;14.01;83.49
75740;BME280;64357;51.344;6.550;2022-10-16T08:20:58;101168.38;;;14.04;83.40
75740;BME280;64357;51.344;6.550;2022-10-16T08:23:25;101180.09;;;14.10;82.80
75740;BME280;64357;51.344;6.550;2022-10-16T08:25:51;101180.53;;;14.15;82.43
75740;BME280;64357;51.344;6.550;2022-10-16T08:28:18;101187.00;;;14.20;82.80
75740;BME280;64357;51.344;6.550;2022-10-16T08:30:43;101192.69;;;14.26;82.42
75740;BME280;64357;51.344;6.550;2022-10-16T08:33:11;101189.88;;;14.33;82.19
75740;BME280;64357;51.344;6.550;2022-10-16T08:35:39;101195.16;;;14.35;82.49
75740;BME280;64357;51.344;6.550;2022-10-16T08:38:05;101197.59;;;14.52;81.11
75740;BME280;64357;51.344;6.550;2022-10-16T08:40:32;101211.53;;;14.64;80.90
75740;BME280;64357;51.344;6.550;2022-10-16T08:43:23;101208.00;;;14.73;80.48
75740;BME280;64357;51.344;6.550;2022-10-16T08:48:53;101208.03;;;14.83;80.16
75740;BME280;64357;51.344;6.550;2022-10-16T08:51:35;101219.97;;;15.01;79.25
75740;BME280;64357;51.344;6.550;2022-10-16T08:56:30;101215.00;;;15.13;78.58
75740;BME280;64357;51.344;6.550;2022-10-16T08:58:58;101228.91;;;15.35;77.60
75740;BME280;64357;51.344;6.550;2022-10-16T09:01:37;101227.25;;;15.36;77.97
75740;BME280;64357;51.344;6.550;2022-10-16T09:04:29;101226.63;;;15.38;77.12
75740;BME280;64357;51.344;6.550;2022-10-16T09:12:40;101234.69;;;15.72;75.07
75740;BME280;64357;51.344;6.550;2022-10-16T09:15:32;101239.47;;;15.78;74.71
75740;BME280;64357;51.344;6.550;2022-10-16T09:23:22;101230.56;;;15.94;74.19
75740;BME280;64357;51.344;6.550;2022-10-16T09:25:49;101241.94;;;15.96;73.66
75740;BME280;64357;51.344;6.550;2022-10-16T09:28:18;101243.97;;;16.00;73.39
75740;BME280;64357;51.344;6.550;2022-10-16T09:30:45;101248.22;;;16.10;72.90
75740;BME280;64357;51.344;6.550;2022-10-16T09:33:12;101245.38;;;16.17;71.96
75740;BME280;64357;51.344;6.550;2022-10-16T09:35:44;101249.63;;;16.17;72.34
75740;BME280;64357;51.344;6.550;2022-10-16T09:38:42;101253.38;;;16.20;72.23
75740;BME280;64357;51.344;6.550;2022-10-16T09:41:21;101245.38;;;16.27;71.23
75740;BME280;64357;51.344;6.550;2022-10-16T09:43:59;101244.59;;;16.29;71.76
75740;BME280;64357;51.344;6.550;2022-10-16T09:46:36;101244.47;;;16.27;72.08
75740;BME280;64357;51.344;6.550;2022-10-16T09:51:49;101248.72;;;16.37;70.42
75740;BME280;64357;51.344;6.550;2022-10-16T09:54:17;101240.44;;;16.51;70.52
75740;BME280;64357;51.344;6.550;2022-10-16T09:56:45;101240.72;;;16.54;69.31
75740;BME280;64357;51.344;6.550;2022-10-16T09:59:23;101247.53;;;16.53;69.24
75740;BME280;64357;51.344;6.550;2022-10-16T10:01:54;101251.13;;;16.66;69.38
75740;BME280;64357;51.344;6.550;2022-10-16T10:04:25;101256.50;;;16.69;69.47
75740;BME280;64357;51.344;6.550;2022-10-16T10:06:55;101252.50;;;16.83;68.86
75740;BME280;64357;51.344;6.550;2022-10-16T10:11:55;101244.91;;;16.84;68.01
75740;BME280;64357;51.344;6.550;2022-10-16T10:17:01;101260.28;;;17.04;67.00
75740;BME280;64357;51.344;6.550;2022-10-16T10:19:27;101252.25;;;17.12;66.98
75740;BME280;64357;51.344;6.550;2022-10-16T10:21:55;101264.53;;;17.14;66.74
75740;BME280;64357;51.344;6.550;2022-10-16T10:24:20;101266.31;;;17.15;66.10
75740;BME280;64357;51.344;6.550;2022-10-16T10:29:31;101262.81;;;17.25;66.24
75740;BME280;64357;51.344;6.550;2022-10-16T10:32:03;101272.16;;;17.35;64.51
75740;BME280;64357;51.344;6.550;2022-10-16T10:40:36;101269.75;;;18.71;60.96
75740;BME280;64357;51.344;6.550;2022-10-16T10:45:44;101265.91;;;20.75;53.46
75740;BME280;64357;51.344;6.550;2022-10-16T10:48:19;101273.00;;;20.27;54.48
75740;BME280;64357;51.344;6.550;2022-10-16T10:51:04;101269.69;;;20.81;53.15
75740;BME280;64357;51.344;6.550;2022-10-16T10:53:40;101269.38;;;21.85;50.84
75740;BME280;64357;51.344;6.550;2022-10-16T10:56:39;101271.59;;;20.96;51.91
75740;BME280;64357;51.344;6.550;2022-10-16T11:07:34;101264.03;;;23.31;46.00
75740;BME280;64357;51.344;6.550;2022-10-16T11:10:12;101261.03;;;22.93;46.83
75740;BME280;64357;51.344;6.550;2022-10-16T11:12:42;101266.16;;;22.76;46.78
75740;BME280;64357;51.344;6.550;2022-10-16T11:17:46;101271.25;;;23.21;45.63
75740;BME280;64357;51.344;6.550;2022-10-16T11:20:45;101274.19;;;23.58;44.50
75740;BME280;64357;51.344;6.550;2022-10-16T11:23:21;101270.06;;;23.30;45.15
75740;BME280;64357;51.344;6.550;2022-10-16T11:25:48;101277.50;;;23.39;45.13
75740;BME280;64357;51.344;6.550;2022-10-16T11:28:22;101275.03;;;23.73;44.96
75740;BME280;64357;51.344;6.550;2022-10-16T11:30:57;101278.03;;;22.42;47.63
75740;BME280;64357;51.344;6.550;2022-10-16T11:36:16;101275.31;;;21.54;48.15
75740;BME280;64357;51.344;6.550;2022-10-16T11:49:50;101283.34;;;22.00;47.63
75740;BME280;64357;51.344;6.550;2022-10-16T11:55:20;101289.56;;;21.33;49.67
75740;BME280;64357;51.344;6.550;2022-10-16T11:57:48;101294.97;;;21.36;50.13
75740;BME280;64357;51.344;6.550;2022-10-16T12:00:24;101284.75;;;21.95;48.88
75740;BME280;64357;51.344;6.550;2022-10-16T12:05:32;101292.19;;;21.61;49.16
75740;BME280;64357;51.344;6.550;2022-10-16T12:08:13;101281.22;;;21.52;49.94
75740;BME280;64357;51.344;6.550;2022-10-16T12:10:46;101282.66;;;20.67;51.70
75740;BME280;64357;51.344;6.550;2022-10-16T12:13:32;101299.94;;;20.67;51.07
75740;BME280;64357;51.344;6.550;2022-10-16T12:18:30;101293.50;;;19.49;54.08
75740;BME280;64357;51.344;6.550;2022-10-16T12:20:59;101292.44;;;19.10;55.67
75740;BME280;64357;51.344;6.550;2022-10-16T12:23:32;101290.00;;;19.00;55.97
75740;BME280;64357;51.344;6.550;2022-10-16T12:25:58;101283.53;;;19.30;55.39
75740;BME280;64357;51.344;6.550;2022-10-16T12:28:32;101280.13;;;19.42;55.07
75740;BME280;64357;51.344;6.550;2022-10-16T12:33:30;101295.59;;;19.29;55.18
75740;BME280;64357;51.344;6.550;2022-10-16T12:36:02;101288.75;;;19.55;54.42
75740;BME280;64357;51.344;6.550;2022-10-16T12:38:37;101287.41;;;19.60;54.42
75740;BME280;64357;51.344;6.550;2022-10-16T12:41:07;101286.91;;;19.77;54.21
75740;BME280;64357;51.344;6.550;2022-10-16T12:43:46;101295.75;;;20.17;53.18
75740;BME280;64357;51.344;6.550;2022-10-16T12:48:42;101298.25;;;20.54;50.89
75740;BME280;64357;51.344;6.550;2022-10-16T12:53:46;101300.75;;;20.79;50.64
75740;BME280;64357;51.344;6.550;2022-10-16T12:56:26;101295.06;;;19.70;53.19
75740;BME280;64357;51.344;6.550;2022-10-16T13:07:38;101296.00;;;19.47;54.45
75740;BME280;64357;51.344;6.550;2022-10-16T13:18:02;101310.84;;;19.61;55.06
75740;BME280;64357;51.344;6.550;2022-10-16T13:21:02;101304.88;;;19.51;54.84
75740;BME280;64357;51.344;6.550;2022-10-16T13:29:10;101315.31;;;18.92;56.41
75740;BME280;64357;51.344;6.550;2022-10-16T13:31:38;101312.72;;;18.80;56.85
75740;BME280;64357;51.344;6.550;2022-10-16T13:34:05;101310.22;;;18.70;57.48
75740;BME280;64357;51.344;6.550;2022-10-16T13:41:37;101307.44;;;18.90;56.85
75740;BME280;64357;51.344;6.550;2022-10-16T13:44:03;101309.91;;;19.12;56.85
75740;BME280;64357;51.344;6.550;2022-10-16T13:46:30;101299.28;;;19.21;56.78
75740;BME280;64357;51.344;6.550;2022-10-16T13:49:13;101292.22;;;19.18;57.13
75740;BME280;64357;51.344;6.550;2022-10-16T13:51:38;101301.81;;;18.96;56.76
75740;BME280;64357;51.344;6.550;2022-10-16T13:54:03;101315.97;;;19.13;56.68
75740;BME280;64357;51.344;6.550;2022-10-16T13:56:31;101317.84;;;19.39;55.25
75740;BME280;64357;51.344;6.550;2022-10-16T13:59:04;101320.22;;;19.36;54.10
75740;BME280;64357;51.344;6.550;2022-10-16T14:01:41;101320.81;;;19.08;55.87
75740;BME280;64357;51.344;6.550;2022-10-16T14:04:11;101323.97;;;19.16;54.77
75740;BME280;64357;51.344;6.550;2022-10-16T14:06:46;101330.72;;;19.02;55.44
75740;BME280;64357;51.344;6.550;2022-10-16T14:11:48;101318.13;;;19.18;53.39
75740;BME280;64357;51.344;6.550;2022-10-16T14:14:17;101308.56;;;18.82;54.05
75740;BME280;64357;51.344;6.550;2022-10-16T14:16:43;101298.97;;;18.93;53.41
75740;BME280;64357;51.344;6.550;2022-10-16T14:19:22;101298.97;;;19.05;53.35
75740;BME280;64357;51.344;6.550;2022-10-16T14:21:50;101305.53;;;18.76;54.26
75740;BME280;64357;51.344;6.550;2022-10-16T14:26:59;101317.69;;;18.77;53.88
75740;BME280;64357;51.344;6.550;2022-10-16T14:29:26;101316.44;;;18.72;54.06
75740;BME280;64357;51.344;6.550;2022-10-16T14:32:00;101312.72;;;19.04;54.58
75740;BME280;64357;51.344;6.550;2022-10-16T14:34:33;101317.97;;;19.17;53.41
75740;BME280;64357;51.344;6.550;2022-10-16T14:37:01;101323.06;;;19.15;53.31
75740;BME280;64357;51.344;6.550;2022-10-16T14:39:32;101314.50;;;18.93;54.33
75740;BME280;64357;51.344;6.550;2022-10-16T14:42:00;101320.72;;;18.95;54.04
75740;BME280;64357;51.344;6.550;2022-10-16T14:44:28;101322.41;;;18.83;55.08
75740;BME280;64357;51.344;6.550;2022-10-16T14:46:55;101334.47;;;18.82;54.92
75740;BME280;64357;51.344;6.550;2022-10-16T14:52:14;101323.47;;;18.63;55.79
75740;BME280;64357;51.344;6.550;2022-10-16T14:54:40;101314.38;;;18.68;55.77
75740;BME280;64357;51.344;6.550;2022-10-16T14:57:17;101328.63;;;18.63;55.76
75740;BME280;64357;51.344;6.550;2022-10-16T14:59:43;101317.97;;;18.70;55.92
75740;BME280;64357;51.344;6.550;2022-10-16T15:04:50;101313.41;;;18.32;58.28
75740;BME280;64357;51.344;6.550;2022-10-16T15:07:15;101301.63;;;18.36;59.58
75740;BME280;64357;51.344;6.550;2022-10-16T15:09:41;101306.81;;;18.48;59.47
75740;BME280;64357;51.344;6.550;2022-10-16T15:12:06;101301.03;;;18.40;60.89
75740;BME280;64357;51.344;6.550;2022-10-16T15:14:32;101298.22;;;18.25;62.76
75740;BME280;64357;51.344;6.550;2022-10-16T15:16:57;101287.78;;;18.02;60.12